createdAt,value
2017-09-18T17:06:15.417Z,1.80
2017-09-18T17:08:44.576Z,2.27
2017-09-18T17:11:12.918Z,1.90
2017-09-18T17:13:41.219Z,1.83
2017-09-18T17:16:10.286Z,2.20
2017-09-18T17:18:38.618Z,1.70
2017-09-18T17:21:06.979Z,2.42
2017-09-18T17:23:36.063Z,2.43
2017-09-18T17:26:04.397Z,1.83
2017-09-18T17:28:32.854Z,2.47
2017-09-18T17:31:01.159Z,2.13
2017-09-18T17:33:30.254Z,1.97
2017-09-18T17:35:58.557Z,1.73
2017-09-18T17:38:26.885Z,1.90
2017-09-18T17:40:55.348Z,2.30
2017-09-18T17:43:25.383Z,2.23
2017-09-18T17:45:54.741Z,2.70
2017-09-18T17:48:23.978Z,2.80
2017-09-18T17:50:54.178Z,2.10
2017-09-18T17:53:23.281Z,2.13
2017-09-18T17:55:52.346Z,1.70
2017-09-18T17:58:20.646Z,1.40
2017-09-18T18:00:48.984Z,1.60
2017-09-18T18:03:18.928Z,1.20
2017-09-18T18:05:47.237Z,1.20
2017-09-18T18:08:15.565Z,1.40
2017-09-18T18:10:45.044Z,1.30
2017-09-18T18:13:13.367Z,1.13
2017-09-18T18:15:41.700Z,1.57
2017-09-18T18:18:10.026Z,1.60
2017-09-18T18:20:38.345Z,1.40
2017-09-18T18:23:06.729Z,1.63
2017-09-18T18:25:35.886Z,1.97
2017-09-18T18:28:04.187Z,1.67
2017-09-18T18:30:32.520Z,2.00
2017-09-18T18:33:00.855Z,2.30
2017-09-18T18:35:29.148Z,2.10
2017-09-18T18:37:57.450Z,1.97
2017-09-18T18:40:25.792Z,1.80
2017-09-18T18:42:54.886Z,1.83
2017-09-18T18:45:23.229Z,1.90
2017-09-18T18:47:51.571Z,2.43
2017-09-18T18:50:19.882Z,1.77
2017-09-18T18:52:48.217Z,2.87
2017-09-18T18:55:16.519Z,2.17
2017-09-18T18:57:44.816Z,2.40
2017-09-18T19:00:13.158Z,1.87
2017-09-18T19:02:41.482Z,2.23
2017-09-18T19:05:09.794Z,2.97
2017-09-18T19:07:38.886Z,3.33
2017-09-18T19:10:07.266Z,3.57
2017-09-18T19:12:35.573Z,2.97
2017-09-18T19:15:04.671Z,3.27
2017-09-18T19:17:33.086Z,3.43
2017-09-18T19:20:02.535Z,3.00
2017-09-18T19:22:30.927Z,3.70
2017-09-18T19:24:59.272Z,3.30
2017-09-18T19:27:28.514Z,3.80
2017-09-18T19:29:56.830Z,3.23
2017-09-18T19:32:25.186Z,3.60
2017-09-18T19:34:53.475Z,3.27
2017-09-18T19:37:21.795Z,3.40
2017-09-18T19:39:50.124Z,3.43
2017-09-18T19:42:18.430Z,4.40
2017-09-18T19:44:46.764Z,4.20
2017-09-18T19:47:15.859Z,4.00
2017-09-18T19:49:44.157Z,3.60
2017-09-18T19:52:12.489Z,3.37
2017-09-18T19:54:41.597Z,3.93
2017-09-18T19:57:09.896Z,3.90
2017-09-18T19:59:38.204Z,4.60
2017-09-18T20:02:06.537Z,4.00
2017-09-18T20:04:34.837Z,4.43
2017-09-18T20:07:03.167Z,4.20
2017-09-18T20:09:31.493Z,5.17
2017-09-18T20:12:00.546Z,4.20
2017-09-18T20:14:28.916Z,3.80
2017-09-18T20:16:57.239Z,4.10
2017-09-18T20:19:25.618Z,3.33
2017-09-18T20:21:53.954Z,4.63
2017-09-18T20:24:22.459Z,3.70
2017-09-18T20:26:51.722Z,4.43
2017-09-18T20:29:20.189Z,4.13
2017-09-18T20:31:48.626Z,4.47
2017-09-18T20:34:16.925Z,4.53
2017-09-18T20:36:45.836Z,4.57
2017-09-18T20:39:15.988Z,4.07
2017-09-18T20:41:44.341Z,4.33
2017-09-18T20:44:12.871Z,4.20
2017-09-18T20:46:42.014Z,3.60
2017-09-18T20:49:10.404Z,3.43
2017-09-18T20:51:39.471Z,3.30
2017-09-18T20:54:07.796Z,3.40
2017-09-18T20:56:36.089Z,3.97
2017-09-18T20:59:05.170Z,4.00
2017-09-18T21:01:33.471Z,3.20
2017-09-18T21:04:01.795Z,3.80
2017-09-18T21:06:30.088Z,3.30
2017-09-18T21:08:58.439Z,3.90
2017-09-18T21:11:26.765Z,3.63
2017-09-18T21:13:55.072Z,3.20
2017-09-18T21:16:23.510Z,3.80
2017-09-18T21:18:52.583Z,3.90
2017-09-18T21:21:21.678Z,2.97
2017-09-18T21:23:50.007Z,3.73
2017-09-18T21:26:19.069Z,3.20
2017-09-18T21:28:47.361Z,3.90
2017-09-18T21:31:15.694Z,3.80
2017-09-18T21:33:43.999Z,3.70
2017-09-18T21:36:12.357Z,4.20
2017-09-18T21:38:41.477Z,3.10
2017-09-18T21:41:10.643Z,4.00
2017-09-18T21:43:38.952Z,4.03
2017-09-18T21:46:08.045Z,3.93
2017-09-18T21:48:36.378Z,3.60
2017-09-18T21:51:04.690Z,4.30
2017-09-18T21:53:32.980Z,4.00
2017-09-18T21:56:01.320Z,4.83
2017-09-18T21:58:29.610Z,3.53
2017-09-18T22:00:58.047Z,3.50
2017-09-18T22:03:26.385Z,3.97
2017-09-18T22:05:54.700Z,4.10
2017-09-18T22:08:22.998Z,3.80
2017-09-18T22:10:51.333Z,3.53
2017-09-18T22:13:19.634Z,2.73
2017-09-18T22:15:48.705Z,3.60
2017-09-18T22:18:17.049Z,3.17
2017-09-18T22:20:45.353Z,4.00
2017-09-18T22:23:13.866Z,3.27
2017-09-18T22:25:42.220Z,3.40
2017-09-18T22:28:10.538Z,3.40
2017-09-18T22:30:38.829Z,2.90
2017-09-18T22:33:07.170Z,3.60
2017-09-18T22:35:35.494Z,3.50
2017-09-18T22:38:03.817Z,4.00
2017-09-18T22:40:32.162Z,3.50
2017-09-18T22:43:00.458Z,3.30
2017-09-18T22:45:29.521Z,3.47
2017-09-18T22:47:58.627Z,3.70
2017-09-18T22:50:26.981Z,3.40
2017-09-18T22:52:55.393Z,4.37
2017-09-18T22:55:23.729Z,3.90
2017-09-18T22:57:52.054Z,3.13
2017-09-18T23:00:20.430Z,3.23
2017-09-18T23:02:48.848Z,3.47
2017-09-18T23:05:17.214Z,4.40
2017-09-18T23:07:45.517Z,3.93
2017-09-18T23:10:13.846Z,3.30
2017-09-18T23:12:42.147Z,3.93
2017-09-18T23:15:11.248Z,3.47
2017-09-18T23:17:39.553Z,3.80
2017-09-18T23:20:07.870Z,3.57
2017-09-18T23:22:36.251Z,3.50
2017-09-18T23:25:05.550Z,3.63
2017-09-18T23:27:34.846Z,3.00
2017-09-18T23:30:04.609Z,3.97
2017-09-18T23:32:33.212Z,3.77
2017-09-18T23:35:01.510Z,3.73
2017-09-18T23:37:29.842Z,3.90
2017-09-18T23:39:58.155Z,3.07
2017-09-18T23:42:26.467Z,3.90
2017-09-18T23:44:54.792Z,3.87
2017-09-18T23:47:23.085Z,4.47
2017-09-18T23:49:51.393Z,4.20
2017-09-18T23:52:20.375Z,4.00
2017-09-18T23:54:49.458Z,3.40
2017-09-18T23:57:17.925Z,3.70
2017-09-18T23:59:46.231Z,4.27
